Terminal Aerodrome Forecast
Issued by NWS Boise, ID

Home | Current Version | Previous Version | Text Only | Print | Product List | Glossary On
Versions: 1 2 3 4 5 6 7 8 9 10 11 12 13 14 15 16 17 18 19 20 21 22 23 24 25 26 27 28 29 30 31 32 33 34 35 36
000
FTUS45 KBOI 011203 AAA
TAFBOI
TAF AMD
KBOI 011203Z 0112/0212 VRB04KT P6SM SCT090 BKN150
      TEMPO 0112/0116 14006KT P6SM BKN040 OVC090
     FM011800 14006KT P6SM SKC=

USA.gov is the U.S. government's official web portal to all federal, state and local government web resources and services.